Weather at Cannon Field [CLOSED]

Public forecast

Using degrees Fahrenheit for public forecast. Weather courtesy of forecast.io.

Closest aviation weather report (METAR) to Cannon Field

Closest report is Stinson Municipal Airport, 8.3 nm (15.4 km) NNE.

2024/04/24 15:53 (retrieved 24 minutes ago)

KSSF 241553Z 13011KT 10SM OVC012 24/21 A3005 RMK AO2 SLP168 T02390206

Closest aviation forecast (TAF) to Cannon Field

Closest forecast is Stinson Municipal Airport, 8.3 nm (15.4 km) NNE.

2024/04/24 15:40 Ammendment (retrieved 37 minutes ago)

TAF AMD KSSF 241438Z 2415/2512 15010KT P6SM OVC015 FM241700 15010KT P6SM BKN025 FM241900 14012KT P6SM BKN040 FM250400 14012KT 6SM BR OVC015 FM250800 15010KT 5SM BR OVC007